Time;durP1;ratioP1;P1;durP2;ratioP2;P2;SDS_P1;SDS_P2;PMS_P1;PMS_P2;Temp;Humidity;BMP_temperature;BMP_pressure;BME280_temperature;BME280_humidity;BME280_pressure;Samples;Min_cycle;Max_cycle;Signal;HPM_P1;HPM_P2
2023/11/21 00:00:39;;;;;;;7.80;3.83;;;;;;;9.78;56.04;100632.56;5070653;28;20043;-87
2023/11/21 00:03:07;;;;;;;6.75;3.80;;;;;;;9.79;55.75;100637.03;5071098;28;20120;-86
2023/11/21 00:05:36;;;;;;;7.25;4.28;;;;;;;9.76;55.55;100635.44;5053375;28;20123;-86
2023/11/21 00:08:06;;;;;;;6.13;4.05;;;;;;;9.76;55.81;100638.16;5054126;28;20063;-86
2023/11/21 00:10:34;;;;;;;6.95;4.25;;;;;;;9.77;55.75;100637.16;5081932;28;20462;-86
2023/11/21 00:13:03;;;;;;;7.38;4.28;;;;;;;9.76;55.60;100634.56;5075120;28;20052;-86
2023/11/21 00:15:31;;;;;;;7.95;4.90;;;;;;;9.76;55.34;100640.91;5056865;28;20055;-87
2023/11/21 00:17:59;;;;;;;6.65;4.18;;;;;;;9.74;55.40;100634.69;5081376;28;20122;-85
2023/11/21 00:20:27;;;;;;;7.25;4.20;;;;;;;9.75;55.76;100641.03;5082604;28;20048;-85
2023/11/21 00:22:55;;;;;;;6.90;3.80;;;;;;;9.74;55.48;100648.34;5071683;28;20075;-83
2023/11/21 00:25:24;;;;;;;5.78;3.67;;;;;;;9.74;55.79;100652.97;5081425;28;20144;-83
2023/11/21 00:27:53;;;;;;;8.43;4.13;;;;;;;9.73;55.47;100659.44;5080029;28;20044;-84
2023/11/21 00:30:22;;;;;;;7.97;4.53;;;;;;;9.74;55.56;100659.28;5052109;28;20075;-87
2023/11/21 00:32:50;;;;;;;6.18;4.03;;;;;;;9.71;55.78;100654.09;5068118;28;20041;-84
2023/11/21 00:35:18;;;;;;;7.05;4.25;;;;;;;9.71;55.59;100659.56;5072353;28;20037;-86
2023/11/21 00:37:46;;;;;;;6.90;3.97;;;;;;;9.70;55.30;100660.56;5053428;28;20345;-85
2023/11/21 00:40:15;;;;;;;7.47;4.60;;;;;;;9.69;55.91;100664.28;5071010;28;20044;-86
2023/11/21 00:42:43;;;;;;;6.78;4.07;;;;;;;9.69;55.51;100660.69;5068682;28;20044;-85
2023/11/21 00:45:12;;;;;;;6.75;4.15;;;;;;;9.67;55.59;100658.09;5071943;28;20107;-86
2023/11/21 00:47:42;;;;;;;10.88;4.55;;;;;;;9.68;55.36;100659.81;5063991;28;20325;-85
2023/11/21 00:50:10;;;;;;;7.18;4.20;;;;;;;9.67;55.81;100662.69;5068104;28;20131;-85
2023/11/21 00:52:38;;;;;;;7.97;4.80;;;;;;;9.66;55.60;100661.81;5068369;28;20036;-85
2023/11/21 00:55:07;;;;;;;7.47;4.75;;;;;;;9.67;55.89;100659.94;5083148;28;20538;-84
2023/11/21 00:57:36;;;;;;;7.25;4.18;;;;;;;9.66;55.90;100666.44;5054514;28;20048;-86
2023/11/21 01:00:09;;;;;;;7.38;4.22;;;;;;;9.65;56.01;100662.84;5069968;28;20095;-85
2023/11/21 01:02:37;;;;;;;8.50;4.55;;;;;;;9.63;55.71;100659.38;5053041;28;20548;-87
2023/11/21 01:05:08;;;;;;;7.40;4.22;;;;;;;9.67;55.63;100669.03;5072317;28;20052;-87
2023/11/21 01:07:36;;;;;;;7.72;4.40;;;;;;;9.63;55.92;100664.84;5055225;28;20499;-87
2023/11/21 01:10:07;;;;;;;9.82;4.60;;;;;;;9.65;55.54;100668.31;5056463;28;20782;-88
2023/11/21 01:12:36;;;;;;;8.20;4.63;;;;;;;9.65;55.64;100668.31;5075269;28;20049;-87
2023/11/21 01:15:07;;;;;;;9.30;5.05;;;;;;;9.64;55.75;100666.56;5078544;28;20114;-85
2023/11/21 01:17:35;;;;;;;6.82;4.43;;;;;;;9.64;55.84;100674.78;5074757;28;20049;-87
2023/11/21 01:20:06;;;;;;;10.57;5.05;;;;;;;9.64;55.42;100669.31;5061306;28;20052;-86
2023/11/21 01:22:35;;;;;;;6.68;4.13;;;;;;;9.66;55.66;100677.38;5077720;28;20060;-86
2023/11/21 01:25:04;;;;;;;8.80;4.32;;;;;;;9.63;55.66;100675.75;5080586;28;20052;-84
2023/11/21 01:27:32;;;;;;;8.45;4.68;;;;;;;9.62;55.70;100678.63;5080365;28;20043;-85
2023/11/21 01:30:00;;;;;;;7.22;4.57;;;;;;;9.64;55.47;100679.38;5054317;28;20044;-85
2023/11/21 01:32:28;;;;;;;11.85;4.97;;;;;;;9.61;55.54;100696.88;5067817;28;20049;-85
2023/11/21 01:34:56;;;;;;;7.25;4.82;;;;;;;9.59;55.73;100689.81;5078216;28;20131;-85
2023/11/21 01:37:27;;;;;;;8.65;4.90;;;;;;;9.61;55.46;100687.81;5058333;28;20056;-86
2023/11/21 01:39:57;;;;;;;8.50;5.30;;;;;;;9.60;55.58;100689.69;5071249;28;20045;-87
2023/11/21 01:42:25;;;;;;;9.88;5.50;;;;;;;9.58;55.47;100699.00;5072852;28;20492;-86
2023/11/21 01:44:54;;;;;;;9.88;5.30;;;;;;;9.55;55.36;100700.16;5071953;28;20051;-87
2023/11/21 01:47:22;;;;;;;8.85;4.88;;;;;;;9.56;55.48;100704.63;5056089;28;20076;-85
2023/11/21 01:49:50;;;;;;;8.30;5.03;;;;;;;9.54;55.49;100705.75;5058601;28;20032;-85
2023/11/21 01:52:19;;;;;;;10.45;5.13;;;;;;;9.53;55.44;100707.59;5071295;28;20386;-85
2023/11/21 01:54:47;;;;;;;7.20;4.63;;;;;;;9.52;55.11;100702.25;5081424;28;20491;-87
2023/11/21 01:57:17;;;;;;;7.93;4.10;;;;;;;9.52;55.32;100703.13;5086374;28;20036;-85
2023/11/21 01:59:46;;;;;;;8.80;5.22;;;;;;;9.52;55.48;100702.25;5074982;28;20044;-83
2023/11/21 02:02:15;;;;;;;6.82;4.20;;;;;;;9.51;55.74;100697.78;5068833;28;20051;-87
2023/11/21 02:04:43;;;;;;;7.93;4.95;;;;;;;9.51;55.15;100701.41;5054430;28;20528;-86
2023/11/21 02:07:11;;;;;;;10.40;4.45;;;;;;;9.51;55.65;100703.25;5051139;28;20036;-85
2023/11/21 02:09:42;;;;;;;9.35;4.50;;;;;;;9.50;55.33;100707.84;5056110;28;20411;-86
2023/11/21 02:12:10;;;;;;;7.10;4.70;;;;;;;9.50;55.80;100715.19;5068722;28;20120;-87
2023/11/21 02:14:41;;;;;;;8.70;5.57;;;;;;;9.51;55.86;100706.88;5074830;28;20040;-83
2023/11/21 02:17:09;;;;;;;7.63;5.00;;;;;;;9.51;55.40;100715.06;5076574;28;20040;-87
2023/11/21 02:19:37;;;;;;;8.38;4.85;;;;;;;9.50;55.79;100716.06;5071826;28;20040;-85
2023/11/21 02:22:06;;;;;;;10.25;5.18;;;;;;;9.49;55.73;100714.34;5070287;28;20048;-86
2023/11/21 02:24:36;;;;;;;9.30;5.50;;;;;;;9.49;55.80;100721.66;5055183;28;20039;-87
2023/11/21 02:27:06;;;;;;;7.57;5.22;;;;;;;9.48;55.66;100725.41;5070864;28;20052;-87
2023/11/21 02:29:34;;;;;;;7.75;4.68;;;;;;;9.48;55.71;100733.59;5079957;28;20040;-86
2023/11/21 02:32:02;;;;;;;8.38;5.30;;;;;;;9.47;55.83;100730.00;5070926;28;20049;-83
2023/11/21 02:34:30;;;;;;;8.75;5.40;;;;;;;9.45;55.61;100734.72;5070782;28;20040;-83
2023/11/21 02:36:58;;;;;;;8.43;5.30;;;;;;;9.46;55.41;100731.00;5075320;28;20102;-83
2023/11/21 02:39:26;;;;;;;9.38;5.53;;;;;;;9.46;55.49;100725.53;5053048;28;20548;-83
2023/11/21 02:41:55;;;;;;;9.82;5.47;;;;;;;9.47;55.92;100732.72;5054018;28;20075;-83
2023/11/21 02:44:24;;;;;;;8.43;4.97;;;;;;;9.45;55.65;100726.50;5070723;28;20037;-86
2023/11/21 02:46:51;;;;;;;10.48;5.30;;;;;;;9.45;55.68;100730.13;5054243;28;20072;-84
2023/11/21 02:49:19;;;;;;;8.98;5.07;;;;;;;9.45;55.67;100726.50;5058044;28;20141;-86
2023/11/21 02:51:47;;;;;;;8.38;5.18;;;;;;;9.43;55.48;100720.31;5071180;28;20078;-85
2023/11/21 02:54:16;;;;;;;8.10;4.93;;;;;;;9.44;55.87;100728.38;5054730;28;20040;-84
2023/11/21 02:56:47;;;;;;;8.45;5.10;;;;;;;9.46;55.91;100736.44;5078955;28;20385;-85
2023/11/21 02:59:16;;;;;;;7.45;4.32;;;;;;;9.49;55.60;100740.78;5078861;28;20571;-83
2023/11/21 03:01:44;;;;;;;8.45;4.95;;;;;;;9.46;56.07;100748.25;5075551;28;20064;-86
2023/11/21 03:04:17;;;;;;;10.32;5.22;;;;;;;9.46;55.63;100739.19;5073813;28;20047;-84
2023/11/21 03:06:46;;;;;;;8.50;5.43;;;;;;;9.45;56.00;100749.25;5055397;28;20349;-84
2023/11/21 03:09:14;;;;;;;6.32;4.90;;;;;;;9.45;55.75;100749.25;5055364;28;20062;-84
2023/11/21 03:11:42;;;;;;;9.60;4.80;;;;;;;9.45;55.62;100745.63;5072056;28;20071;-84
2023/11/21 03:14:10;;;;;;;10.68;5.88;;;;;;;9.43;55.94;100744.88;5055002;28;20127;-84
2023/11/21 03:16:41;;;;;;;8.13;5.30;;;;;;;9.46;56.09;100747.38;5073719;28;20263;-86
2023/11/21 03:19:09;;;;;;;9.57;5.90;;;;;;;9.44;55.89;100750.22;5051463;28;20098;-87
2023/11/21 03:21:36;;;;;;;10.10;5.10;;;;;;;9.42;55.93;100744.03;5054686;28;20045;-85
2023/11/21 03:24:06;;;;;;;9.07;4.93;;;;;;;9.45;55.85;100751.09;5069139;28;20047;-87
2023/11/21 03:26:34;;;;;;;9.38;5.57;;;;;;;9.43;55.86;100750.34;5070173;28;20060;-83
2023/11/21 03:29:02;;;;;;;8.15;5.35;;;;;;;9.43;55.57;100756.69;5072887;28;20059;-87
2023/11/21 03:31:29;;;;;;;8.63;5.03;;;;;;;9.42;55.95;100754.06;5082487;28;20098;-87
2023/11/21 03:33:59;;;;;;;9.52;5.30;;;;;;;9.44;55.77;100766.63;5086923;28;20136;-87
2023/11/21 03:36:27;;;;;;;7.85;5.00;;;;;;;9.43;55.63;100767.63;5095256;28;20068;-84
2023/11/21 03:38:55;;;;;;;8.75;5.68;;;;;;;9.43;55.92;100764.00;5094428;28;20048;-84
2023/11/21 03:41:23;;;;;;;9.95;5.85;;;;;;;9.43;55.90;100766.75;5058308;28;20060;-84
2023/11/21 03:43:51;;;;;;;8.18;4.88;;;;;;;9.43;56.21;100767.63;5081532;28;20040;-84
2023/11/21 03:46:19;;;;;;;7.55;4.75;;;;;;;9.43;55.91;100783.13;5051179;28;20052;-84
2023/11/21 03:48:47;;;;;;;8.80;5.20;;;;;;;9.41;56.27;100780.53;5071792;28;20067;-85
2023/11/21 03:51:17;;;;;;;8.75;5.38;;;;;;;9.44;56.34;100782.13;5059487;28;20047;-85
2023/11/21 03:53:45;;;;;;;8.25;5.40;;;;;;;9.41;55.97;100790.63;5078482;28;20049;-85
2023/11/21 03:56:14;;;;;;;7.68;4.82;;;;;;;9.45;56.14;100797.53;5073493;28;20401;-85
2023/11/21 03:58:42;;;;;;;9.57;5.30;;;;;;;9.42;56.37;100793.19;5077389;28;20104;-86
2023/11/21 04:01:10;;;;;;;8.18;5.13;;;;;;;9.44;56.16;100801.25;5061417;28;20051;-84
2023/11/21 04:03:40;;;;;;;9.40;5.55;;;;;;;9.43;56.09;100802.25;5054155;28;20049;-83
2023/11/21 04:06:09;;;;;;;9.73;5.45;;;;;;;9.45;55.92;100805.72;5071066;28;20102;-83
2023/11/21 04:08:39;;;;;;;8.00;4.97;;;;;;;9.44;56.19;100798.53;5053803;28;20041;-83
2023/11/21 04:11:07;;;;;;;10.00;5.60;;;;;;;9.42;56.27;100797.78;5051946;28;20043;-83
2023/11/21 04:13:35;;;;;;;8.27;5.50;;;;;;;9.44;56.06;100802.13;5068892;28;20048;-83
2023/11/21 04:16:03;;;;;;;8.05;5.18;;;;;;;9.43;56.26;100805.84;5075901;28;20044;-83
2023/11/21 04:18:31;;;;;;;9.18;5.13;;;;;;;9.42;56.06;100800.50;5053306;28;20115;-82
2023/11/21 04:20:59;;;;;;;9.05;5.28;;;;;;;9.43;55.80;100810.44;5078980;28;20043;-83
2023/11/21 04:23:28;;;;;;;10.35;5.95;;;;;;;9.42;56.17;100804.13;5063568;28;20047;-83
2023/11/21 04:25:57;;;;;;;7.95;5.15;;;;;;;9.44;55.81;100804.00;5051607;28;20460;-82
2023/11/21 04:28:25;;;;;;;9.10;5.82;;;;;;;9.41;55.74;100805.09;5058593;28;20121;-84
2023/11/21 04:30:53;;;;;;;10.18;6.40;;;;;;;9.39;55.90;100801.66;5071033;28;20049;-84
2023/11/21 04:33:22;;;;;;;8.35;5.50;;;;;;;9.39;55.68;100811.72;5052594;28;20056;-83
2023/11/21 04:35:50;;;;;;;10.45;5.97;;;;;;;9.40;56.00;100811.59;5061499;28;20070;-83
2023/11/21 04:38:18;;;;;;;10.07;5.95;;;;;;;9.40;55.93;100803.41;5052399;28;20101;-83
2023/11/21 04:40:47;;;;;;;8.93;5.78;;;;;;;9.39;55.84;100806.25;5052310;28;20103;-83
2023/11/21 04:43:16;;;;;;;10.30;5.97;;;;;;;9.39;55.79;100806.25;5066515;28;20044;-83
2023/11/21 04:45:44;;;;;;;8.05;5.85;;;;;;;9.37;56.18;100808.22;5069994;28;20071;-83
2023/11/21 04:48:12;;;;;;;9.32;6.10;;;;;;;9.35;55.70;100808.31;5055761;28;20115;-83
2023/11/21 04:50:40;;;;;;;9.45;6.10;;;;;;;9.36;55.91;100815.53;5076995;28;20052;-83
2023/11/21 04:53:08;;;;;;;10.05;5.80;;;;;;;9.35;56.22;100818.38;5080507;28;20409;-83
2023/11/21 04:55:36;;;;;;;9.80;5.75;;;;;;;9.34;56.13;100822.09;5053589;28;20040;-82
2023/11/21 04:58:04;;;;;;;8.73;5.95;;;;;;;9.32;55.91;100819.53;5072927;28;20048;-83
2023/11/21 05:00:33;;;;;;;9.02;6.13;;;;;;;9.34;56.30;100820.25;5058608;28;20040;-83
2023/11/21 05:03:02;;;;;;;7.68;5.55;;;;;;;9.31;56.21;100823.25;5066327;28;20047;-83
2023/11/21 05:05:30;;;;;;;9.48;6.18;;;;;;;9.31;55.89;100833.31;5053431;28;20048;-84
2023/11/21 05:07:58;;;;;;;9.57;5.57;;;;;;;9.32;56.06;100843.25;5078407;28;20053;-84
2023/11/21 05:10:26;;;;;;;10.75;6.15;;;;;;;9.31;56.03;100849.69;5067096;28;20036;-83
2023/11/21 05:12:55;;;;;;;8.77;5.80;;;;;;;9.30;55.89;100840.63;5072938;28;20558;-83
2023/11/21 05:15:23;;;;;;;8.80;5.32;;;;;;;9.31;55.95;100844.22;5097132;28;20040;-82
2023/11/21 05:17:53;;;;;;;8.00;5.55;;;;;;;9.32;56.01;100852.31;5058623;28;20044;-82
2023/11/21 05:20:21;;;;;;;8.45;5.95;;;;;;;9.30;56.02;100851.56;5078809;28;20101;-82
2023/11/21 05:22:49;;;;;;;8.32;5.72;;;;;;;9.31;55.81;100855.16;5069420;28;20048;-83
2023/11/21 05:25:18;;;;;;;8.00;5.57;;;;;;;9.31;55.96;100857.88;5076367;28;20067;-82
2023/11/21 05:27:47;;;;;;;9.93;6.20;;;;;;;9.31;56.36;100860.63;5074131;28;20036;-82
2023/11/21 05:30:15;;;;;;;9.88;5.93;;;;;;;9.32;56.60;100870.56;5079036;28;20054;-82
2023/11/21 05:32:43;;;;;;;10.07;6.20;;;;;;;9.31;56.14;100869.69;5072617;28;20445;-83
2023/11/21 05:35:15;;;;;;;10.52;6.45;;;;;;;9.32;56.30;100881.47;5083588;28;20127;-83
2023/11/21 05:37:44;;;;;;;10.55;6.00;;;;;;;9.28;56.40;100872.66;5075302;28;20032;-83
2023/11/21 05:40:12;;;;;;;10.05;6.20;;;;;;;9.31;56.21;100877.00;5082009;28;20037;-82
2023/11/21 05:42:41;;;;;;;9.48;5.78;;;;;;;9.31;56.49;100872.41;5078111;28;20390;-82
2023/11/21 05:45:10;;;;;;;10.15;6.30;;;;;;;9.31;56.14;100868.81;5079199;28;20047;-82
2023/11/21 05:47:41;;;;;;;10.05;6.15;;;;;;;9.32;56.13;100878.75;5057948;28;20039;-82
2023/11/21 05:50:14;;;;;;;10.02;6.22;;;;;;;9.34;56.22;100890.38;5062214;28;20040;-83
2023/11/21 05:52:45;;;;;;;12.63;7.32;;;;;;;9.33;55.92;100883.22;5054456;28;20028;-82
2023/11/21 05:55:14;;;;;;;11.40;6.85;;;;;;;9.33;56.01;100888.69;5054919;28;20045;-82
2023/11/21 05:57:43;;;;;;;11.13;7.18;;;;;;;9.35;56.28;100894.84;5047714;28;20076;-82
2023/11/21 06:00:18;;;;;;;11.95;7.13;;;;;;;9.33;55.96;100899.59;5082858;28;20149;-82
2023/11/21 06:02:46;;;;;;;11.13;7.32;;;;;;;9.32;55.88;100900.59;5051453;28;20068;-83
2023/11/21 06:05:14;;;;;;;11.77;7.40;;;;;;;9.32;55.96;100906.94;5075271;28;20068;-82
2023/11/21 06:07:42;;;;;;;13.15;7.63;;;;;;;9.31;55.83;100905.19;5052433;28;20086;-83
2023/11/21 06:10:14;;;;;;;11.65;6.82;;;;;;;9.31;56.32;100907.91;5067112;28;20083;-83
2023/11/21 06:12:42;;;;;;;14.27;8.10;;;;;;;9.31;56.14;100915.25;5075804;28;20044;-83
2023/11/21 06:15:13;;;;;;;14.35;7.95;;;;;;;9.33;56.40;100918.72;5078470;28;20488;-82
2023/11/21 06:17:42;;;;;;;12.20;7.45;;;;;;;9.32;55.98;100926.03;5050642;28;20497;-82
2023/11/21 06:20:13;;;;;;;13.57;7.63;;;;;;;9.31;56.06;100920.69;5067083;28;20036;-82
2023/11/21 06:22:43;;;;;;;13.40;7.88;;;;;;;9.32;56.06;100930.63;5069641;28;20045;-83
2023/11/21 06:25:14;;;;;;;13.95;8.07;;;;;;;9.32;56.03;100928.78;5055977;28;20048;-83
2023/11/21 06:27:44;;;;;;;14.32;7.93;;;;;;;9.32;56.33;100938.84;5070992;28;20033;-82
2023/11/21 06:30:13;;;;;;;12.82;7.57;;;;;;;9.31;56.25;100937.09;5060041;28;20044;-82
2023/11/21 06:32:45;;;;;;;14.15;7.93;;;;;;;9.30;56.18;100932.63;5072028;28;20055;-83
2023/11/21 06:35:15;;;;;;;14.68;8.38;;;;;;;9.26;56.10;100939.31;5075548;28;20044;-83
2023/11/21 06:37:47;;;;;;;15.13;8.25;;;;;;;9.28;56.00;100945.50;5072484;28;20357;-84
2023/11/21 06:40:20;;;;;;;15.48;8.20;;;;;;;9.28;56.25;100951.84;5069284;28;20043;-83
2023/11/21 06:42:50;;;;;;;13.20;7.85;;;;;;;9.25;56.19;100957.53;5075653;28;20133;-83
2023/11/21 06:45:19;;;;;;;14.32;8.38;;;;;;;9.27;55.88;100963.75;5073408;28;20045;-84
2023/11/21 06:47:47;;;;;;;13.18;8.38;;;;;;;9.26;56.32;100966.63;5088741;28;20032;-83
2023/11/21 06:50:16;;;;;;;14.32;8.75;;;;;;;9.26;56.26;100961.16;5086273;28;20062;-83
2023/11/21 06:52:44;;;;;;;14.40;8.27;;;;;;;9.26;56.39;100963.88;5085461;28;20120;-85
2023/11/21 06:55:13;;;;;;;14.05;8.38;;;;;;;9.24;56.68;100963.16;5065061;28;20044;-84
2023/11/21 06:57:43;;;;;;;13.95;8.23;;;;;;;9.26;56.74;100972.94;5077458;28;20041;-85
2023/11/21 07:00:12;;;;;;;16.38;8.82;;;;;;;9.25;56.23;100967.59;5053926;28;20045;-85
2023/11/21 07:02:40;;;;;;;14.90;9.02;;;;;;;9.26;56.77;100977.53;5079117;28;20094;-83
2023/11/21 07:05:08;;;;;;;14.43;8.70;;;;;;;9.28;56.38;100984.63;5075143;28;20041;-84
2023/11/21 07:07:37;;;;;;;15.60;8.68;;;;;;;9.27;56.67;100988.34;5051705;28;20068;-84
2023/11/21 07:10:06;;;;;;;16.15;8.57;;;;;;;9.28;56.74;100987.34;5071177;28;20044;-84
2023/11/21 07:12:35;;;;;;;16.13;9.45;;;;;;;9.28;56.73;100991.94;5049278;28;20071;-84
2023/11/21 07:15:08;;;;;;;15.40;8.23;;;;;;;9.29;56.24;100991.84;5070501;28;20136;-84
2023/11/21 07:17:37;;;;;;;15.85;8.70;;;;;;;9.28;56.30;101006.47;5070172;28;20045;-85
2023/11/21 07:20:09;;;;;;;16.27;8.65;;;;;;;9.28;56.51;101002.88;5071727;28;20044;-85
2023/11/21 07:22:37;;;;;;;14.45;8.70;;;;;;;9.29;56.75;101019.13;5073707;28;20512;-84
2023/11/21 07:25:07;;;;;;;15.65;8.52;;;;;;;9.29;56.21;101023.72;5072511;28;20044;-85
2023/11/21 07:27:35;;;;;;;14.20;7.95;;;;;;;9.28;56.53;101024.72;5053007;28;20408;-85
2023/11/21 07:30:07;;;;;;;18.30;8.95;;;;;;;9.31;56.48;101027.22;5075263;28;20072;-85
2023/11/21 07:32:35;;;;;;;19.45;9.15;;;;;;;9.29;56.31;101035.53;5052605;28;20571;-85
2023/11/21 07:35:04;;;;;;;16.95;8.60;;;;;;;9.32;56.63;101034.41;5054172;28;20063;-85
2023/11/21 07:37:32;;;;;;;20.02;9.38;;;;;;;9.31;56.79;101029.94;5046300;28;20045;-84
2023/11/21 07:40:00;;;;;;;19.65;9.40;;;;;;;9.32;56.45;101028.97;5070021;28;20504;-85
2023/11/21 07:42:28;;;;;;;18.13;9.18;;;;;;;9.32;56.34;101026.22;5071740;28;20052;-85
2023/11/21 07:44:57;;;;;;;14.65;8.10;;;;;;;9.31;56.63;101024.47;5071573;28;20063;-85
2023/11/21 07:47:27;;;;;;;15.75;8.30;;;;;;;9.33;56.80;101023.34;5071451;28;20049;-86
2023/11/21 07:49:56;;;;;;;16.33;8.77;;;;;;;9.33;56.89;101022.50;5072500;28;20404;-85
2023/11/21 07:52:24;;;;;;;14.93;8.07;;;;;;;9.34;56.88;101026.94;5072395;28;20045;-84
2023/11/21 07:54:53;;;;;;;16.40;8.43;;;;;;;9.35;56.49;101034.16;5071242;28;20067;-83
2023/11/21 07:57:21;;;;;;;14.60;7.25;;;;;;;9.34;56.62;101029.69;5049494;28;20037;-85
2023/11/21 07:59:53;;;;;;;13.85;7.85;;;;;;;9.35;57.13;101048.69;5068453;28;20045;-84
2023/11/21 08:02:21;;;;;;;15.45;8.40;;;;;;;9.36;56.70;101044.97;5063079;28;20045;-84
2023/11/21 08:04:51;;;;;;;16.05;8.40;;;;;;;9.37;56.71;101045.84;5068103;28;20044;-84
2023/11/21 08:07:19;;;;;;;15.95;8.57;;;;;;;9.36;56.45;101055.91;5059504;28;20123;-84
2023/11/21 08:09:49;;;;;;;14.45;7.82;;;;;;;9.36;56.84;101061.34;5047051;28;20052;-84
2023/11/21 08:12:18;;;;;;;18.88;9.50;;;;;;;9.36;57.02;101064.09;5077518;28;20600;-84
2023/11/21 08:14:46;;;;;;;17.13;9.15;;;;;;;9.37;56.71;101064.97;5074703;28;20036;-85
2023/11/21 08:17:14;;;;;;;19.10;9.80;;;;;;;9.38;56.74;101080.38;5053887;28;20063;-85
2023/11/21 08:19:49;;;;;;;17.67;9.00;;;;;;;9.38;56.82;101091.28;5057377;28;20110;-85
2023/11/21 08:22:18;;;;;;;14.90;8.93;;;;;;;9.36;56.95;101085.06;5076166;28;20042;-84
2023/11/21 08:24:47;;;;;;;17.77;8.98;;;;;;;9.37;56.93;101095.00;5086998;28;20047;-82
2023/11/21 08:27:15;;;;;;;19.08;9.50;;;;;;;9.37;56.72;101100.47;5086126;28;20036;-83
2023/11/21 08:29:43;;;;;;;21.55;10.40;;;;;;;9.39;56.82;101098.53;5082101;28;20415;-84
2023/11/21 08:32:11;;;;;;;18.35;9.73;;;;;;;9.38;56.66;101104.94;5080363;28;20040;-84
2023/11/21 08:34:42;;;;;;;19.80;10.30;;;;;;;9.39;56.68;101114.91;5075188;28;20053;-84
2023/11/21 08:37:12;;;;;;;20.27;10.32;;;;;;;9.40;57.03;101124.84;5075063;28;20071;-84
2023/11/21 08:39:41;;;;;;;23.38;10.85;;;;;;;9.42;56.85;101114.66;5072005;28;20492;-83
2023/11/21 08:42:09;;;;;;;17.67;9.77;;;;;;;9.40;56.63;101113.94;5069305;28;20044;-83
2023/11/21 08:44:38;;;;;;;16.83;9.70;;;;;;;9.42;57.09;101120.13;5072892;28;20048;-82
2023/11/21 08:47:07;;;;;;;18.38;10.48;;;;;;;9.42;57.03;101117.38;5081872;28;20115;-85
2023/11/21 08:49:36;;;;;;;19.98;10.68;;;;;;;9.42;56.76;101122.84;5080738;28;20043;-84
2023/11/21 08:52:05;;;;;;;20.45;10.02;;;;;;;9.44;57.12;101126.34;5070627;28;20054;-83
2023/11/21 08:54:34;;;;;;;18.17;9.48;;;;;;;9.44;57.19;101126.34;5082265;28;20098;-85
2023/11/21 08:57:04;;;;;;;18.63;10.20;;;;;;;9.45;57.21;101137.16;5083114;28;20040;-84
2023/11/21 08:59:32;;;;;;;20.25;10.05;;;;;;;9.43;56.92;101132.78;5090509;28;20048;-82
2023/11/21 09:02:00;;;;;;;19.10;10.15;;;;;;;9.46;57.18;101140.75;5100947;28;20056;-82
2023/11/21 09:04:28;;;;;;;20.95;9.73;;;;;;;9.46;57.18;101144.38;5062946;28;20036;-84
2023/11/21 09:06:56;;;;;;;19.15;10.13;;;;;;;9.47;57.20;101145.25;5078121;28;20045;-84
2023/11/21 09:09:25;;;;;;;19.40;9.90;;;;;;;9.47;57.20;101145.25;5076171;28;20106;-85
2023/11/21 09:11:53;;;;;;;20.63;10.98;;;;;;;9.45;57.33;101137.16;5075655;28;20566;-83
2023/11/21 09:14:22;;;;;;;18.65;10.32;;;;;;;9.50;57.22;101149.56;5076208;28;20068;-83
2023/11/21 09:16:51;;;;;;;21.38;10.98;;;;;;;9.50;57.25;101149.56;5078099;28;20544;-85
2023/11/21 09:19:19;;;;;;;18.73;10.57;;;;;;;9.51;57.18;101156.78;5069702;28;20534;-83
2023/11/21 09:21:47;;;;;;;16.27;9.55;;;;;;;9.51;57.56;101162.25;5059263;28;20056;-85
2023/11/21 09:24:15;;;;;;;18.88;10.18;;;;;;;9.51;57.31;101160.38;5075465;28;20049;-83
2023/11/21 09:26:43;;;;;;;19.65;10.00;;;;;;;9.53;57.13;101165.72;5069982;28;20588;-85
2023/11/21 09:29:11;;;;;;;19.60;10.73;;;;;;;9.52;56.75;101164.84;5054500;28;20041;-84
2023/11/21 09:31:42;;;;;;;21.33;11.07;;;;;;;9.53;57.12;101163.88;5071020;28;20488;-83
2023/11/21 09:34:11;;;;;;;20.85;10.35;;;;;;;9.53;57.19;101163.00;5070335;28;20496;-84
2023/11/21 09:36:40;;;;;;;18.73;10.27;;;;;;;9.54;56.90;101176.53;5074685;28;20060;-84
2023/11/21 09:39:09;;;;;;;23.38;11.02;;;;;;;9.54;57.24;101176.53;5080027;28;20136;-84
2023/11/21 09:41:44;;;;;;;19.00;10.30;;;;;;;9.56;57.36;101180.03;5069861;28;20428;-83
2023/11/21 09:44:15;;;;;;;20.35;10.30;;;;;;;9.58;57.12;101182.63;5057226;28;20051;-83
2023/11/21 09:46:49;;;;;;;20.23;10.07;;;;;;;9.60;57.21;101194.31;5049538;28;20083;-84
2023/11/21 09:49:24;;;;;;;18.90;9.68;;;;;;;9.58;57.32;101191.69;5070552;28;20048;-82
2023/11/21 09:51:56;;;;;;;20.13;10.00;;;;;;;9.60;57.35;101197.91;5053438;28;20052;-83
2023/11/21 09:54:24;;;;;;;20.00;9.73;;;;;;;9.59;56.86;101195.31;5054431;28;20052;-84
2023/11/21 09:56:52;;;;;;;18.65;10.05;;;;;;;9.59;57.04;101193.44;5079818;28;20524;-85
2023/11/21 09:59:21;;;;;;;20.63;9.77;;;;;;;9.61;56.89;101196.94;5081731;28;20040;-84
2023/11/21 10:01:50;;;;;;;18.75;9.95;;;;;;;9.61;56.82;101191.47;5067355;28;20043;-84
2023/11/21 10:04:19;;;;;;;18.02;9.98;;;;;;;9.59;57.22;101189.84;5068798;28;20822;-83
2023/11/21 10:06:49;;;;;;;20.35;9.35;;;;;;;9.64;57.03;101204.03;5089984;28;20047;-83
2023/11/21 10:09:20;;;;;;;18.00;9.57;;;;;;;9.64;56.89;101202.16;5082240;28;20036;-83
2023/11/21 10:11:50;;;;;;;18.48;9.98;;;;;;;9.65;57.20;101203.03;5079132;28;20063;-84
2023/11/21 10:14:20;;;;;;;16.38;9.48;;;;;;;9.67;57.26;101201.03;5050508;28;20044;-85
2023/11/21 10:16:53;;;;;;;16.90;8.87;;;;;;;9.62;57.24;101201.41;5077129;28;20102;-83
2023/11/21 10:19:23;;;;;;;16.13;9.05;;;;;;;9.67;57.04;101207.38;5075866;28;20033;-84
2023/11/21 10:21:52;;;;;;;18.15;8.85;;;;;;;9.67;57.23;101198.31;5070314;28;20041;-82
2023/11/21 10:24:20;;;;;;;17.77;9.40;;;;;;;9.67;57.19;101204.63;5060399;28;20041;-83
2023/11/21 10:26:48;;;;;;;22.05;9.70;;;;;;;9.67;57.28;101198.31;5062268;28;20044;-84
2023/11/21 10:29:22;;;;;;;18.45;9.75;;;;;;;9.64;56.88;101193.97;5074838;28;20049;-82
2023/11/21 10:31:54;;;;;;;18.40;9.27;;;;;;;9.69;56.92;101197.19;5057853;28;20037;-83
2023/11/21 10:34:24;;;;;;;21.27;10.15;;;;;;;9.69;56.78;101204.53;5077032;28;20048;-84
2023/11/21 10:36:52;;;;;;;18.05;9.55;;;;;;;9.70;57.27;101207.16;5056076;28;20063;-83
2023/11/21 10:39:23;;;;;;;17.20;9.13;;;;;;;9.70;57.11;101209.88;5072428;28;20072;-84
2023/11/21 10:41:51;;;;;;;18.73;9.85;;;;;;;9.70;57.03;101209.88;5072713;28;20453;-84
2023/11/21 10:44:22;;;;;;;18.15;8.98;;;;;;;9.71;57.02;101208.03;5055614;28;20046;-83
2023/11/21 10:46:55;;;;;;;17.00;9.57;;;;;;;9.72;56.89;101216.09;5072107;28;20048;-84
2023/11/21 10:49:25;;;;;;;19.42;9.75;;;;;;;9.72;57.48;101220.69;5075917;28;20544;-83
2023/11/21 10:51:55;;;;;;;20.33;10.50;;;;;;;9.73;57.28;101228.78;5054963;28;20348;-83
2023/11/21 10:54:25;;;;;;;21.77;10.10;;;;;;;9.72;57.46;101216.09;5056011;28;20094;-83
2023/11/21 10:56:57;;;;;;;24.50;11.63;;;;;;;9.75;56.84;101224.03;5054261;28;20064;-82
2023/11/21 10:59:29;;;;;;;23.30;11.25;;;;;;;9.75;56.89;101229.50;5071152;28;20048;-83
2023/11/21 11:02:00;;;;;;;22.58;11.68;;;;;;;9.74;57.28;101222.28;5073105;28;20043;-83
2023/11/21 11:04:29;;;;;;;21.58;11.27;;;;;;;9.75;57.38;101231.38;5068166;28;20044;-84
2023/11/21 11:07:03;;;;;;;23.52;10.65;;;;;;;9.77;57.11;101232.13;5072345;28;20385;-83
2023/11/21 11:09:34;;;;;;;22.45;11.45;;;;;;;9.77;56.86;101234.88;5071109;28;20063;-83
2023/11/21 11:12:04;;;;;;;24.30;11.23;;;;;;;9.77;57.01;101238.47;5071534;28;20508;-83
2023/11/21 11:14:33;;;;;;;22.25;11.55;;;;;;;9.79;57.12;101244.69;5067002;28;20086;-83
2023/11/21 11:17:05;;;;;;;23.58;12.80;;;;;;;9.77;57.12;101241.19;5045256;28;20067;-84
2023/11/21 11:19:34;;;;;;;25.90;13.60;;;;;;;9.77;57.21;101249.41;5070915;28;20064;-83
2023/11/21 11:22:15;;;;;;;25.52;14.10;;;;;;;9.81;57.03;101253.66;5077685;28;20531;-82
2023/11/21 11:25:19;;;;;;;28.75;15.40;;;;;;;9.81;57.11;101244.59;5072468;28;20491;-83
2023/11/21 11:27:57;;;;;;;27.55;14.02;;;;;;;9.80;56.78;101242.84;5067823;28;20052;-83
2023/11/21 11:30:41;;;;;;;29.73;14.10;;;;;;;9.80;56.78;101245.56;5049533;28;20033;-84
2023/11/21 11:33:25;;;;;;;30.30;15.55;;;;;;;9.81;57.09;101252.78;5077922;28;20048;-84
2023/11/21 11:36:02;;;;;;;27.80;15.10;;;;;;;9.80;56.79;101253.78;5078416;28;20044;-83